createdAt,value
2017-10-16T00:00:04.885Z,77.50
2017-10-16T00:01:10.457Z,77.61
2017-10-16T00:02:17.015Z,77.68
2017-10-16T00:03:23.371Z,77.71
2017-10-16T00:04:29.125Z,77.89
2017-10-16T00:05:34.889Z,77.78
2017-10-16T00:06:40.644Z,77.83
2017-10-16T00:07:46.465Z,77.72
2017-10-16T00:08:52.224Z,77.74
2017-10-16T00:09:57.967Z,77.75
2017-10-16T00:11:03.716Z,77.73
2017-10-16T00:12:09.497Z,77.77
2017-10-16T00:13:15.273Z,77.78
2017-10-16T00:14:20.836Z,77.83
2017-10-16T00:15:26.589Z,77.86
2017-10-16T00:16:32.126Z,78.00
2017-10-16T00:17:37.931Z,77.96
2017-10-16T00:18:43.707Z,78.00
2017-10-16T00:19:49.512Z,77.93
2017-10-16T00:20:55.296Z,78.03
2017-10-16T00:22:01.044Z,77.98
2017-10-16T00:23:06.810Z,77.93
2017-10-16T00:24:12.587Z,77.86
2017-10-16T00:25:18.336Z,77.88
2017-10-16T00:26:24.093Z,77.91
2017-10-16T00:27:29.857Z,77.91
2017-10-16T00:28:35.608Z,77.87
2017-10-16T00:29:42.168Z,77.91
2017-10-16T00:30:47.920Z,78.03
2017-10-16T00:31:54.471Z,78.01
2017-10-16T00:33:00.228Z,78.18
2017-10-16T00:34:06.766Z,78.23
2017-10-16T00:35:12.562Z,78.20
2017-10-16T00:36:18.337Z,78.19
2017-10-16T00:37:24.085Z,78.14
2017-10-16T00:38:29.849Z,78.15
2017-10-16T00:39:36.197Z,78.13
2017-10-16T00:40:41.981Z,78.18
2017-10-16T00:41:47.779Z,78.17
2017-10-16T00:42:53.529Z,78.33
2017-10-16T00:43:59.857Z,78.17
2017-10-16T00:45:05.444Z,78.02
2017-10-16T00:46:11.234Z,78.01
2017-10-16T00:47:16.816Z,78.02
2017-10-16T00:48:23.340Z,78.04
2017-10-16T00:49:29.107Z,77.93
2017-10-16T00:50:35.643Z,77.95
2017-10-16T00:51:42.198Z,78.02
2017-10-16T00:52:47.969Z,78.29
2017-10-16T00:53:54.498Z,78.50
2017-10-16T00:55:00.257Z,78.71
2017-10-16T00:56:05.443Z,78.57
2017-10-16T00:57:10.546Z,78.41
2017-10-16T00:58:15.996Z,78.55
2017-10-16T00:59:20.885Z,78.87
2017-10-16T01:00:26.722Z,78.99
2017-10-16T01:01:33.248Z,78.98
2017-10-16T01:02:39.032Z,79.22
2017-10-16T01:03:45.360Z,79.23
2017-10-16T01:04:51.881Z,79.43
2017-10-16T01:05:57.657Z,79.59
2017-10-16T01:07:04.199Z,79.59
2017-10-16T01:08:11.024Z,79.85
2017-10-16T01:09:17.409Z,79.69
2017-10-16T01:10:22.829Z,79.85
2017-10-16T01:11:28.458Z,80.06
2017-10-16T01:12:34.233Z,80.43
2017-10-16T01:13:40.010Z,80.38
2017-10-16T01:14:45.415Z,80.32
2017-10-16T01:15:50.316Z,80.58
2017-10-16T01:16:56.086Z,80.62
2017-10-16T01:18:01.845Z,80.47
2017-10-16T01:19:07.632Z,80.50
2017-10-16T01:20:13.060Z,80.34
2017-10-16T01:21:18.591Z,80.35
2017-10-16T01:22:24.065Z,80.46
2017-10-16T01:23:29.562Z,80.57
2017-10-16T01:24:34.468Z,80.42
2017-10-16T01:25:39.535Z,80.75
2017-10-16T01:26:44.609Z,80.87
2017-10-16T01:27:50.794Z,80.83
2017-10-16T01:28:55.871Z,80.72
2017-10-16T01:30:01.465Z,80.70
2017-10-16T01:31:07.804Z,80.78
2017-10-16T01:32:12.703Z,80.60
2017-10-16T01:33:18.879Z,80.53
2017-10-16T01:34:23.961Z,80.74
2017-10-16T01:35:29.828Z,80.75
2017-10-16T01:36:36.021Z,80.79
2017-10-16T01:37:40.908Z,80.71
2017-10-16T01:38:46.536Z,80.87
2017-10-16T01:39:51.965Z,80.97
2017-10-16T01:40:58.171Z,80.95
2017-10-16T01:42:03.872Z,81.05
2017-10-16T01:43:09.712Z,81.04
2017-10-16T01:44:15.889Z,81.22
2017-10-16T01:45:21.316Z,81.17
2017-10-16T01:46:26.786Z,81.32
2017-10-16T01:47:31.901Z,81.51
2017-10-16T01:48:36.975Z,81.67
2017-10-16T01:49:43.188Z,81.61
2017-10-16T01:50:48.256Z,81.66
2017-10-16T01:51:54.170Z,81.65
2017-10-16T01:52:59.252Z,81.62
2017-10-16T01:54:04.328Z,81.58
2017-10-16T01:55:09.746Z,81.54
2017-10-16T01:56:14.836Z,81.67
2017-10-16T01:57:19.932Z,81.65
2017-10-16T01:58:25.697Z,81.64
2017-10-16T01:59:31.450Z,81.59
2017-10-16T02:00:36.876Z,81.65
2017-10-16T02:01:42.673Z,81.59
2017-10-16T02:02:49.229Z,81.54
2017-10-16T02:03:54.999Z,81.69
2017-10-16T02:05:01.349Z,81.68
2017-10-16T02:06:07.907Z,81.68
2017-10-16T02:07:13.665Z,81.71
2017-10-16T02:08:19.469Z,81.70
2017-10-16T02:09:25.242Z,81.71
2017-10-16T02:10:31.764Z,81.54
2017-10-16T02:11:37.541Z,81.42
2017-10-16T02:12:44.071Z,81.46
2017-10-16T02:13:49.873Z,81.58
2017-10-16T02:14:55.643Z,81.46
2017-10-16T02:16:01.404Z,81.44
2017-10-16T02:17:07.181Z,81.46
2017-10-16T02:18:12.944Z,81.37
2017-10-16T02:19:18.736Z,81.48
2017-10-16T02:20:25.286Z,81.56
2017-10-16T02:21:31.814Z,81.63
2017-10-16T02:22:37.625Z,81.69
2017-10-16T02:23:43.352Z,81.94
2017-10-16T02:24:49.756Z,82.07
2017-10-16T02:25:55.307Z,81.99
2017-10-16T02:27:01.081Z,81.95
2017-10-16T02:28:06.838Z,81.90
2017-10-16T02:29:13.364Z,82.05
2017-10-16T02:30:18.813Z,82.21
2017-10-16T02:31:25.342Z,82.16
2017-10-16T02:32:31.111Z,82.25
2017-10-16T02:33:36.669Z,82.35
2017-10-16T02:34:43.533Z,82.49
2017-10-16T02:35:49.661Z,82.46
2017-10-16T02:36:56.531Z,82.27
2017-10-16T02:38:02.589Z,82.27
2017-10-16T02:39:08.159Z,82.19
2017-10-16T02:40:13.915Z,82.20
2017-10-16T02:41:19.724Z,82.17
2017-10-16T02:42:25.484Z,82.11
2017-10-16T02:43:31.248Z,82.06
2017-10-16T02:44:37.012Z,81.96
2017-10-16T02:45:42.425Z,81.88
2017-10-16T02:46:48.245Z,81.91
2017-10-16T02:47:54.006Z,81.98
2017-10-16T02:48:59.785Z,82.03
2017-10-16T02:50:05.565Z,81.94
2017-10-16T02:51:11.134Z,81.94
2017-10-16T02:52:16.748Z,81.91
2017-10-16T02:53:22.513Z,81.96
2017-10-16T02:54:28.292Z,81.92
2017-10-16T02:55:34.837Z,81.96
2017-10-16T02:56:42.105Z,81.96
2017-10-16T02:57:47.913Z,81.95
2017-10-16T02:58:53.682Z,81.96
2017-10-16T02:59:59.452Z,81.84
2017-10-16T03:01:05.209Z,81.64
2017-10-16T03:02:10.976Z,81.71
2017-10-16T03:03:16.764Z,81.67
2017-10-16T03:04:22.536Z,81.58
2017-10-16T03:05:28.302Z,81.53
2017-10-16T03:06:34.075Z,81.60
2017-10-16T03:07:39.841Z,81.61
2017-10-16T03:08:45.646Z,81.74
2017-10-16T03:09:51.409Z,81.69
2017-10-16T03:10:57.203Z,81.62
2017-10-16T03:12:03.023Z,81.69
2017-10-16T03:13:09.552Z,81.69
2017-10-16T03:14:15.358Z,81.59
2017-10-16T03:15:21.123Z,81.63
2017-10-16T03:16:26.721Z,81.71
2017-10-16T03:17:32.489Z,81.69
2017-10-16T03:18:38.254Z,81.75
2017-10-16T03:19:44.052Z,81.87
2017-10-16T03:20:49.816Z,81.91
2017-10-16T03:21:55.592Z,81.87
2017-10-16T03:23:02.917Z,81.78
2017-10-16T03:24:08.707Z,81.87
2017-10-16T03:25:14.488Z,81.85
2017-10-16T03:26:20.266Z,81.74
2017-10-16T03:27:26.041Z,81.73
2017-10-16T03:28:31.856Z,81.74
2017-10-16T03:29:37.445Z,81.80
2017-10-16T03:30:44.008Z,81.87
2017-10-16T03:31:50.392Z,81.92
2017-10-16T03:32:55.979Z,82.13
2017-10-16T03:34:03.245Z,82.07
2017-10-16T03:35:09.019Z,82.13
2017-10-16T03:36:15.590Z,82.21
2017-10-16T03:37:21.364Z,82.42
2017-10-16T03:38:26.951Z,82.59
2017-10-16T03:39:33.293Z,82.90
2017-10-16T03:40:39.069Z,82.69
2017-10-16T03:41:44.867Z,82.69
2017-10-16T03:42:50.660Z,82.49
2017-10-16T03:43:56.420Z,82.47
2017-10-16T03:45:02.188Z,82.50
2017-10-16T03:46:08.758Z,82.52
2017-10-16T03:47:14.569Z,82.52
2017-10-16T03:48:20.328Z,82.54
2017-10-16T03:49:26.080Z,82.52
2017-10-16T03:50:31.844Z,82.64
2017-10-16T03:51:38.385Z,82.65
2017-10-16T03:52:44.170Z,82.59
2017-10-16T03:53:49.931Z,82.57
2017-10-16T03:54:55.726Z,82.66
2017-10-16T03:56:02.253Z,82.69
2017-10-16T03:57:08.020Z,82.47
2017-10-16T03:58:14.404Z,82.37
2017-10-16T03:59:20.182Z,82.30
2017-10-16T04:00:25.951Z,82.23
2017-10-16T04:01:31.713Z,82.15
2017-10-16T04:02:38.257Z,82.02
2017-10-16T04:03:44.052Z,81.86
2017-10-16T04:04:49.821Z,81.77
2017-10-16T04:05:55.585Z,81.71
2017-10-16T04:07:01.356Z,81.80
2017-10-16T04:08:07.121Z,81.86
2017-10-16T04:09:12.914Z,81.76
2017-10-16T04:10:18.684Z,81.84
2017-10-16T04:11:24.204Z,81.77
2017-10-16T04:12:30.740Z,81.68
2017-10-16T04:13:36.509Z,81.67
2017-10-16T04:14:42.869Z,81.62
2017-10-16T04:15:48.640Z,81.65
2017-10-16T04:16:54.223Z,81.79
2017-10-16T04:17:59.993Z,81.97
2017-10-16T04:19:05.765Z,82.00
2017-10-16T04:20:11.370Z,81.61
2017-10-16T04:21:17.137Z,81.49
2017-10-16T04:22:22.716Z,81.13
2017-10-16T04:23:28.507Z,80.76
2017-10-16T04:24:34.281Z,80.04
2017-10-16T04:25:41.100Z,79.78
2017-10-16T04:26:46.869Z,79.98
2017-10-16T04:27:52.638Z,80.08
2017-10-16T04:28:58.416Z,80.03
2017-10-16T04:30:04.998Z,80.09
2017-10-16T04:31:10.849Z,80.05
2017-10-16T04:32:16.612Z,80.58
2017-10-16T04:33:22.435Z,80.36
2017-10-16T04:34:28.192Z,80.41
2017-10-16T04:35:33.959Z,80.64
2017-10-16T04:36:40.165Z,80.50
2017-10-16T04:37:45.974Z,80.57
2017-10-16T04:38:51.733Z,80.71
2017-10-16T04:39:57.520Z,80.66
2017-10-16T04:41:03.318Z,80.77
2017-10-16T04:42:09.145Z,80.96
2017-10-16T04:43:15.681Z,81.23
2017-10-16T04:44:21.074Z,81.59
2017-10-16T04:45:26.870Z,82.16
2017-10-16T04:46:32.454Z,82.67
2017-10-16T04:47:38.268Z,83.03
2017-10-16T04:48:44.629Z,83.27
2017-10-16T04:49:50.680Z,83.52
2017-10-16T04:50:57.205Z,83.71
2017-10-16T04:52:03.004Z,83.92
2017-10-16T04:53:08.810Z,83.99
2017-10-16T04:54:15.140Z,83.79
2017-10-16T04:55:20.912Z,83.82
2017-10-16T04:56:27.102Z,83.67
2017-10-16T04:57:32.876Z,83.35
2017-10-16T04:58:38.660Z,82.51
2017-10-16T04:59:44.474Z,82.10
2017-10-16T05:00:51.028Z,82.14
2017-10-16T05:01:56.788Z,81.99
2017-10-16T05:03:03.116Z,81.88
2017-10-16T05:04:08.916Z,81.89
2017-10-16T05:05:14.685Z,82.03
2017-10-16T05:06:20.394Z,82.04
2017-10-16T05:07:26.170Z,81.95
2017-10-16T05:08:31.940Z,81.94
2017-10-16T05:09:37.757Z,81.92
2017-10-16T05:10:43.774Z,81.89
2017-10-16T05:11:49.552Z,81.97
2017-10-16T05:12:55.355Z,82.10
2017-10-16T05:14:01.164Z,82.29
2017-10-16T05:15:06.745Z,82.47
2017-10-16T05:16:12.521Z,82.47
2017-10-16T05:17:18.379Z,82.48
2017-10-16T05:18:24.773Z,82.67
2017-10-16T05:19:30.557Z,82.72
2017-10-16T05:20:36.369Z,82.97
2017-10-16T05:21:42.141Z,83.10
2017-10-16T05:22:47.917Z,83.09
2017-10-16T05:23:54.508Z,82.97
2017-10-16T05:25:00.267Z,82.95
2017-10-16T05:26:05.871Z,82.84
2017-10-16T05:27:11.649Z,82.88
2017-10-16T05:28:17.419Z,82.93
2017-10-16T05:29:23.417Z,82.91
2017-10-16T05:30:29.795Z,82.95
2017-10-16T05:31:35.617Z,83.01
2017-10-16T05:32:41.380Z,83.38
2017-10-16T05:33:47.255Z,83.31
2017-10-16T05:34:56.054Z,83.31
2017-10-16T05:36:01.818Z,83.43
2017-10-16T05:37:07.624Z,83.52
2017-10-16T05:38:13.394Z,83.73
2017-10-16T05:39:19.183Z,83.82
2017-10-16T05:40:24.963Z,83.99
2017-10-16T05:41:31.162Z,84.04
2017-10-16T05:42:37.333Z,84.49
2017-10-16T05:43:43.122Z,84.41
2017-10-16T05:44:48.552Z,84.19
2017-10-16T05:45:53.469Z,84.05
2017-10-16T05:46:58.597Z,83.20
2017-10-16T05:48:05.165Z,82.58
2017-10-16T05:49:10.977Z,82.63
2017-10-16T05:50:16.741Z,82.58
2017-10-16T05:51:22.594Z,82.47
2017-10-16T05:52:28.011Z,82.63
2017-10-16T05:53:33.813Z,82.84
2017-10-16T05:54:39.872Z,82.89
2017-10-16T05:55:45.401Z,82.93
2017-10-16T05:56:51.165Z,82.96
2017-10-16T05:57:56.932Z,82.80
2017-10-16T05:59:02.787Z,82.88
2017-10-16T06:00:08.201Z,83.28
2017-10-16T06:01:14.003Z,83.85
2017-10-16T06:02:19.770Z,84.65
2017-10-16T06:03:25.533Z,84.93
2017-10-16T06:04:31.316Z,85.03
2017-10-16T06:05:36.408Z,84.93
2017-10-16T06:06:41.824Z,85.20
2017-10-16T06:07:47.249Z,85.07
2017-10-16T06:08:52.321Z,85.28
2017-10-16T06:09:58.190Z,85.38
2017-10-16T06:11:03.952Z,85.30
2017-10-16T06:12:09.726Z,85.19
2017-10-16T06:13:15.149Z,85.06
2017-10-16T06:14:20.924Z,85.05
2017-10-16T06:15:27.314Z,84.85
2017-10-16T06:16:32.548Z,84.71
2017-10-16T06:17:38.133Z,84.56
2017-10-16T06:18:43.885Z,84.15
2017-10-16T06:19:50.442Z,83.82
2017-10-16T06:20:55.909Z,83.62
2017-10-16T06:22:01.678Z,83.23
2017-10-16T06:23:07.261Z,82.97
2017-10-16T06:24:13.807Z,82.85
2017-10-16T06:25:19.564Z,82.78
2017-10-16T06:26:26.212Z,82.83
2017-10-16T06:27:31.757Z,82.93
2017-10-16T06:28:38.256Z,82.97
2017-10-16T06:29:43.474Z,82.95
2017-10-16T06:30:49.301Z,82.87
2017-10-16T06:31:55.507Z,82.75
2017-10-16T06:33:00.942Z,82.72
2017-10-16T06:34:06.696Z,82.67
2017-10-16T06:35:12.959Z,82.63
2017-10-16T06:36:18.725Z,82.69
2017-10-16T06:37:25.505Z,82.71
2017-10-16T06:38:32.020Z,82.69
2017-10-16T06:39:37.789Z,82.61
2017-10-16T06:40:43.220Z,82.50
2017-10-16T06:41:48.992Z,82.41
2017-10-16T06:42:54.780Z,82.37
2017-10-16T06:44:00.626Z,82.26
2017-10-16T06:45:07.172Z,82.04
2017-10-16T06:46:12.363Z,81.79
2017-10-16T06:47:18.133Z,81.71
2017-10-16T06:48:23.749Z,81.65
2017-10-16T06:49:29.520Z,81.65
2017-10-16T06:50:35.288Z,81.57
2017-10-16T06:51:41.045Z,81.50
2017-10-16T06:52:47.589Z,81.51
2017-10-16T06:53:54.158Z,81.58
2017-10-16T06:55:00.496Z,81.60
2017-10-16T06:56:07.590Z,81.56
2017-10-16T06:57:13.915Z,81.47
2017-10-16T06:58:19.693Z,81.31
2017-10-16T06:59:26.269Z,81.26
2017-10-16T07:00:31.841Z,81.13
2017-10-16T07:01:37.600Z,81.00
2017-10-16T07:02:43.372Z,80.83
2017-10-16T07:03:49.725Z,80.75
2017-10-16T07:04:56.280Z,80.58
2017-10-16T07:06:02.819Z,80.52
2017-10-16T07:07:08.393Z,80.62
2017-10-16T07:08:14.169Z,80.58
2017-10-16T07:09:20.189Z,80.57
2017-10-16T07:10:26.005Z,80.58
2017-10-16T07:11:31.761Z,80.64
2017-10-16T07:12:37.534Z,80.68
2017-10-16T07:13:43.120Z,80.76
2017-10-16T07:14:49.661Z,80.58
2017-10-16T07:15:55.365Z,80.63
2017-10-16T07:17:01.132Z,80.44
2017-10-16T07:18:06.910Z,80.23
2017-10-16T07:19:13.445Z,80.09
2017-10-16T07:20:19.205Z,80.01
2017-10-16T07:21:25.769Z,79.92
2017-10-16T07:22:32.308Z,79.69
2017-10-16T07:23:39.576Z,79.54
2017-10-16T07:24:45.377Z,79.40
2017-10-16T07:25:51.149Z,79.19
2017-10-16T07:26:56.936Z,78.94
2017-10-16T07:28:03.466Z,78.74
2017-10-16T07:29:09.232Z,78.51
2017-10-16T07:30:15.430Z,78.28
2017-10-16T07:31:21.205Z,78.05
2017-10-16T07:32:27.004Z,77.75
2017-10-16T07:33:32.781Z,77.34
2017-10-16T07:34:38.554Z,76.89
2017-10-16T07:35:44.893Z,76.27
2017-10-16T07:36:50.669Z,75.48
2017-10-16T07:37:56.314Z,74.49
2017-10-16T07:39:02.083Z,73.15
2017-10-16T07:40:07.857Z,71.78
2017-10-16T07:41:13.648Z,70.39
2017-10-16T07:42:19.424Z,68.95
2017-10-16T07:43:25.029Z,67.42
2017-10-16T07:44:30.804Z,66.06
2017-10-16T07:45:36.381Z,64.54
2017-10-16T07:46:42.734Z,63.19
2017-10-16T07:47:49.311Z,61.61
2017-10-16T07:48:55.105Z,60.15
2017-10-16T07:50:00.910Z,58.68
2017-10-16T07:51:06.675Z,57.32
2017-10-16T07:52:12.440Z,56.28
2017-10-16T07:53:18.205Z,55.67
2017-10-16T07:54:24.766Z,54.74
2017-10-16T07:55:31.285Z,53.96
2017-10-16T07:56:37.431Z,52.76
2017-10-16T07:57:42.992Z,52.17
2017-10-16T07:58:48.780Z,51.64
2017-10-16T07:59:54.569Z,51.12
2017-10-16T08:01:01.107Z,50.43
2017-10-16T08:02:06.865Z,49.96
2017-10-16T08:03:12.624Z,49.41
2017-10-16T08:04:19.162Z,49.17
2017-10-16T08:05:25.720Z,48.79
2017-10-16T08:06:31.527Z,48.48
2017-10-16T08:07:37.301Z,47.93
2017-10-16T08:08:43.057Z,47.41
2017-10-16T08:09:48.824Z,47.03
2017-10-16T08:10:55.177Z,46.71
2017-10-16T08:12:01.719Z,46.32
2017-10-16T08:13:07.756Z,46.35
2017-10-16T08:14:13.516Z,46.12
2017-10-16T08:15:19.276Z,45.70
2017-10-16T08:16:25.837Z,45.71
2017-10-16T08:17:32.353Z,45.35
2017-10-16T08:18:38.124Z,45.27
2017-10-16T08:19:43.907Z,45.24
2017-10-16T08:20:49.665Z,45.27
2017-10-16T08:21:55.453Z,45.27
2017-10-16T08:23:01.644Z,45.08
2017-10-16T08:24:06.721Z,45.01
2017-10-16T08:25:12.127Z,45.03
2017-10-16T08:26:17.265Z,45.03
2017-10-16T08:27:22.364Z,44.74
2017-10-16T08:28:27.425Z,44.36
2017-10-16T08:29:33.206Z,43.85
2017-10-16T08:30:39.389Z,43.34
2017-10-16T08:31:44.797Z,43.88
2017-10-16T08:32:50.248Z,43.84
2017-10-16T08:33:55.329Z,43.55
2017-10-16T08:35:00.400Z,43.50
2017-10-16T08:36:05.472Z,42.97
2017-10-16T08:37:10.357Z,42.62
2017-10-16T08:38:15.265Z,42.49
2017-10-16T08:39:20.483Z,42.30
2017-10-16T08:40:26.037Z,42.45
2017-10-16T08:41:31.097Z,42.31
2017-10-16T08:42:35.989Z,42.14
2017-10-16T08:43:41.080Z,41.98
2017-10-16T08:44:46.912Z,41.65
2017-10-16T08:45:53.097Z,41.96
2017-10-16T08:46:58.171Z,41.72
2017-10-16T08:48:04.071Z,41.61
2017-10-16T08:49:09.514Z,41.53
2017-10-16T08:50:15.317Z,41.44
2017-10-16T08:51:21.164Z,41.57
2017-10-16T08:52:25.986Z,41.41
2017-10-16T08:53:31.064Z,41.04
2017-10-16T08:54:36.498Z,40.90
2017-10-16T08:55:41.916Z,41.04
2017-10-16T08:56:47.920Z,41.03
2017-10-16T08:57:53.603Z,41.35
2017-10-16T08:58:59.015Z,41.20
2017-10-16T09:00:04.549Z,41.17
2017-10-16T09:01:09.972Z,41.15
2017-10-16T09:02:15.041Z,40.72
2017-10-16T09:03:20.137Z,40.43
2017-10-16T09:04:25.567Z,40.09
2017-10-16T09:05:30.808Z,40.46
2017-10-16T09:06:35.724Z,41.23
2017-10-16T09:07:40.780Z,41.57
2017-10-16T09:08:46.584Z,42.02
2017-10-16T09:09:51.652Z,42.30
2017-10-16T09:10:56.745Z,42.42
2017-10-16T09:12:01.821Z,42.30
2017-10-16T09:13:07.242Z,42.35
2017-10-16T09:14:12.325Z,42.10
2017-10-16T09:15:17.388Z,41.90
2017-10-16T09:16:22.839Z,41.76
2017-10-16T09:17:28.244Z,42.06
2017-10-16T09:18:33.327Z,42.13
2017-10-16T09:19:38.205Z,42.00
2017-10-16T09:20:43.287Z,41.68
2017-10-16T09:21:48.384Z,41.65
2017-10-16T09:22:54.228Z,41.56
2017-10-16T09:24:00.116Z,41.27
2017-10-16T09:25:05.210Z,40.75
2017-10-16T09:26:10.044Z,40.65
2017-10-16T09:27:15.497Z,40.49
2017-10-16T09:28:20.561Z,40.74
2017-10-16T09:29:26.038Z,40.80
2017-10-16T09:30:31.460Z,40.83
2017-10-16T09:31:36.884Z,41.36
2017-10-16T09:32:42.568Z,41.29
2017-10-16T09:33:47.981Z,40.97
2017-10-16T09:34:53.047Z,41.29
2017-10-16T09:35:58.134Z,41.40
2017-10-16T09:37:03.224Z,41.48
2017-10-16T09:38:08.326Z,41.63
2017-10-16T09:39:13.420Z,42.36
2017-10-16T09:40:18.494Z,42.21
2017-10-16T09:41:23.584Z,42.23
2017-10-16T09:42:28.472Z,42.44
2017-10-16T09:43:33.924Z,42.92
2017-10-16T09:44:39.337Z,42.44
2017-10-16T09:45:44.220Z,42.28
2017-10-16T09:46:49.631Z,41.76
2017-10-16T09:47:54.697Z,41.45
2017-10-16T09:49:00.561Z,41.61
2017-10-16T09:50:06.401Z,41.38
2017-10-16T09:51:11.478Z,41.27
2017-10-16T09:52:16.541Z,41.25
2017-10-16T09:53:22.731Z,41.27
2017-10-16T09:54:28.198Z,41.15
2017-10-16T09:55:33.964Z,41.32
2017-10-16T09:56:40.148Z,41.27
2017-10-16T09:57:45.219Z,41.03
2017-10-16T09:58:50.662Z,41.05
2017-10-16T09:59:57.272Z,40.87
2017-10-16T10:01:02.697Z,40.79
2017-10-16T10:02:07.593Z,41.07
2017-10-16T10:03:13.783Z,41.11
2017-10-16T10:04:19.196Z,41.68
2017-10-16T10:05:24.668Z,41.95
2017-10-16T10:06:30.449Z,42.26
2017-10-16T10:07:35.329Z,42.25
2017-10-16T10:08:40.418Z,42.09
2017-10-16T10:09:45.534Z,42.48
2017-10-16T10:10:51.442Z,42.55
2017-10-16T10:11:56.874Z,42.61
2017-10-16T10:13:01.960Z,42.36
2017-10-16T10:14:07.045Z,42.92
2017-10-16T10:15:13.632Z,43.31
2017-10-16T10:16:19.113Z,43.62
2017-10-16T10:17:24.554Z,44.07
2017-10-16T10:18:30.459Z,44.08
2017-10-16T10:19:35.549Z,44.31
2017-10-16T10:20:41.307Z,44.17
2017-10-16T10:21:47.858Z,44.50
2017-10-16T10:22:54.221Z,44.73
2017-10-16T10:24:00.581Z,44.96
2017-10-16T10:25:06.779Z,45.46
2017-10-16T10:26:12.551Z,45.50
2017-10-16T10:27:18.176Z,45.75
2017-10-16T10:28:23.942Z,45.97
2017-10-16T10:29:30.486Z,45.95
2017-10-16T10:30:36.328Z,46.41
2017-10-16T10:31:42.693Z,46.13
2017-10-16T10:32:48.488Z,46.22
2017-10-16T10:33:54.291Z,46.71
2017-10-16T10:35:00.849Z,46.94
2017-10-16T10:36:07.400Z,47.20
2017-10-16T10:37:13.175Z,47.14
2017-10-16T10:38:18.976Z,47.38
2017-10-16T10:39:24.744Z,47.57
2017-10-16T10:40:30.518Z,47.46
2017-10-16T10:41:36.289Z,48.03
2017-10-16T10:42:42.093Z,48.04
2017-10-16T10:43:47.873Z,48.06
2017-10-16T10:44:53.649Z,48.21
2017-10-16T10:45:59.420Z,48.75
2017-10-16T10:47:05.204Z,49.05
2017-10-16T10:48:10.974Z,49.43
2017-10-16T10:49:17.560Z,49.82
2017-10-16T10:50:23.336Z,50.30
2017-10-16T10:51:29.120Z,50.46
2017-10-16T10:52:35.652Z,50.81
2017-10-16T10:53:42.924Z,51.05
2017-10-16T10:54:48.385Z,51.28
2017-10-16T10:55:54.930Z,51.66
2017-10-16T10:57:00.705Z,52.02
2017-10-16T10:58:06.472Z,51.99
2017-10-16T10:59:12.245Z,51.97
2017-10-16T11:00:18.120Z,52.09
2017-10-16T11:01:24.650Z,52.25
2017-10-16T11:02:31.217Z,52.37
2017-10-16T11:03:37.795Z,52.43
2017-10-16T11:04:44.329Z,52.62
2017-10-16T11:05:50.128Z,52.44
2017-10-16T11:06:55.896Z,52.76
2017-10-16T11:08:01.693Z,52.83
2017-10-16T11:09:07.873Z,52.83
2017-10-16T11:10:13.742Z,52.89
2017-10-16T11:11:19.554Z,53.09
2017-10-16T11:12:25.334Z,53.15
2017-10-16T11:13:30.925Z,53.09
2017-10-16T11:14:36.685Z,53.30
2017-10-16T11:15:41.556Z,53.36
2017-10-16T11:16:48.126Z,53.13
2017-10-16T11:17:54.309Z,52.83
2017-10-16T11:19:00.080Z,52.83
2017-10-16T11:20:05.857Z,52.96
2017-10-16T11:21:11.535Z,52.80
2017-10-16T11:22:17.656Z,52.85
2017-10-16T11:23:23.489Z,52.81
2017-10-16T11:24:29.367Z,52.73
2017-10-16T11:25:34.428Z,52.78
2017-10-16T11:26:39.513Z,52.66
2017-10-16T11:27:44.603Z,52.45
2017-10-16T11:28:49.943Z,52.60
2017-10-16T11:29:55.799Z,52.46
2017-10-16T11:31:01.597Z,52.56
2017-10-16T11:32:07.013Z,52.31
2017-10-16T11:33:12.469Z,52.23
2017-10-16T11:34:17.578Z,52.20
2017-10-16T11:35:22.644Z,52.07
2017-10-16T11:36:27.738Z,52.08
2017-10-16T11:37:33.213Z,52.02
2017-10-16T11:38:38.573Z,51.88
2017-10-16T11:39:43.980Z,51.96
2017-10-16T11:40:49.617Z,51.93
2017-10-16T11:41:55.796Z,52.04
2017-10-16T11:43:00.877Z,52.13
2017-10-16T11:44:05.966Z,52.09
2017-10-16T11:45:11.038Z,52.10
2017-10-16T11:46:17.227Z,51.85
2017-10-16T11:47:22.649Z,51.83
2017-10-16T11:48:27.704Z,51.71
2017-10-16T11:49:32.808Z,51.77
2017-10-16T11:50:38.220Z,51.62
2017-10-16T11:51:44.060Z,51.60
2017-10-16T11:52:50.238Z,51.60
2017-10-16T11:53:55.664Z,51.69
2017-10-16T11:55:02.200Z,51.51
2017-10-16T11:56:08.383Z,51.49
2017-10-16T11:57:13.462Z,51.51
2017-10-16T11:58:18.936Z,51.10
2017-10-16T11:59:24.356Z,51.02
2017-10-16T12:00:30.265Z,51.13
2017-10-16T12:01:35.372Z,51.12
2017-10-16T12:02:40.502Z,51.09
2017-10-16T12:03:45.737Z,51.10
2017-10-16T12:04:50.803Z,51.16
2017-10-16T12:05:56.414Z,51.20
2017-10-16T12:07:01.494Z,51.01
2017-10-16T12:08:06.574Z,50.90
2017-10-16T12:09:11.677Z,50.60
2017-10-16T12:10:16.793Z,50.73
2017-10-16T12:11:21.948Z,50.60
2017-10-16T12:12:27.061Z,50.66
2017-10-16T12:13:32.165Z,50.60
2017-10-16T12:14:37.237Z,50.52
2017-10-16T12:15:42.304Z,50.54
2017-10-16T12:16:47.824Z,50.53
2017-10-16T12:17:53.766Z,50.50
2017-10-16T12:18:59.365Z,50.30
2017-10-16T12:20:04.497Z,50.47
2017-10-16T12:21:09.557Z,50.32
2017-10-16T12:22:15.592Z,50.38
2017-10-16T12:23:21.492Z,50.37
2017-10-16T12:24:26.558Z,50.46
2017-10-16T12:25:31.753Z,50.46
2017-10-16T12:26:37.324Z,50.29
2017-10-16T12:27:42.407Z,50.15
2017-10-16T12:28:47.812Z,49.97
2017-10-16T12:29:53.559Z,50.00
2017-10-16T12:30:58.964Z,50.06
2017-10-16T12:32:05.038Z,50.17
2017-10-16T12:33:10.154Z,50.12
2017-10-16T12:34:15.243Z,50.32
2017-10-16T12:35:20.049Z,50.18
2017-10-16T12:36:24.892Z,50.19
2017-10-16T12:37:29.953Z,50.19
2017-10-16T12:38:35.050Z,50.09
2017-10-16T12:39:40.132Z,50.21
2017-10-16T12:40:45.216Z,50.15
2017-10-16T12:41:51.081Z,50.24
2017-10-16T12:42:56.153Z,50.15
2017-10-16T12:44:01.278Z,50.09
2017-10-16T12:45:06.353Z,50.18
2017-10-16T12:46:11.416Z,50.24
2017-10-16T12:47:16.480Z,50.17
2017-10-16T12:48:22.512Z,50.20
2017-10-16T12:49:27.677Z,50.29
2017-10-16T12:50:32.736Z,50.22
2017-10-16T12:51:37.796Z,50.06
2017-10-16T12:52:42.425Z,50.16
2017-10-16T12:53:48.056Z,49.90
2017-10-16T12:54:54.296Z,49.93
2017-10-16T12:56:00.136Z,49.82
2017-10-16T12:57:05.540Z,49.74
2017-10-16T12:58:10.614Z,49.73
2017-10-16T12:59:16.440Z,49.66
2017-10-16T13:00:21.553Z,49.62
2017-10-16T13:01:26.672Z,49.36
2017-10-16T13:02:31.476Z,49.45
2017-10-16T13:03:36.610Z,49.61
2017-10-16T13:04:42.029Z,49.74
2017-10-16T13:05:46.870Z,49.53
2017-10-16T13:06:51.979Z,49.68
2017-10-16T13:07:56.826Z,49.74
2017-10-16T13:09:01.939Z,49.90
2017-10-16T13:10:07.017Z,49.73
2017-10-16T13:11:12.888Z,49.58
2017-10-16T13:12:17.725Z,49.36
2017-10-16T13:13:22.789Z,49.38
2017-10-16T13:14:28.682Z,49.15
2017-10-16T13:15:33.636Z,49.25
2017-10-16T13:16:39.335Z,49.10
2017-10-16T13:17:44.404Z,48.96
2017-10-16T13:18:49.320Z,49.18
2017-10-16T13:19:55.148Z,49.33
2017-10-16T13:20:59.820Z,49.19
2017-10-16T13:22:05.489Z,49.08
2017-10-16T13:23:10.550Z,49.29
2017-10-16T13:24:15.645Z,49.24
2017-10-16T13:25:20.696Z,49.41
2017-10-16T13:26:26.237Z,49.39
2017-10-16T13:27:31.391Z,49.42
2017-10-16T13:28:37.055Z,49.35
2017-10-16T13:29:42.124Z,49.50
2017-10-16T13:30:47.217Z,49.61
2017-10-16T13:31:52.293Z,49.59
2017-10-16T13:32:57.210Z,49.68
2017-10-16T13:34:02.103Z,49.88
2017-10-16T13:35:08.186Z,49.96
2017-10-16T13:36:14.087Z,49.87
2017-10-16T13:37:19.173Z,49.83
2017-10-16T13:38:25.051Z,49.70
2017-10-16T13:39:30.116Z,49.72
2017-10-16T13:40:35.182Z,49.70
2017-10-16T13:41:40.278Z,49.60
2017-10-16T13:42:45.382Z,49.55
2017-10-16T13:43:50.482Z,49.55
2017-10-16T13:44:55.564Z,49.59
2017-10-16T13:46:01.205Z,49.62
2017-10-16T13:47:07.072Z,49.53
2017-10-16T13:48:11.963Z,49.62
2017-10-16T13:49:17.720Z,49.60
2017-10-16T13:50:23.553Z,49.54
2017-10-16T13:51:29.473Z,49.56
2017-10-16T13:52:34.705Z,49.60
2017-10-16T13:53:40.880Z,49.76
2017-10-16T13:54:46.795Z,49.61
2017-10-16T13:55:52.009Z,49.48
2017-10-16T13:56:57.538Z,49.36
2017-10-16T13:58:02.348Z,49.32
2017-10-16T13:59:07.454Z,49.37
2017-10-16T14:00:12.644Z,49.28
2017-10-16T14:01:18.584Z,49.13
2017-10-16T14:02:23.793Z,49.02
2017-10-16T14:03:28.861Z,49.02
2017-10-16T14:04:35.980Z,49.14
2017-10-16T14:05:41.145Z,49.14